createdAt,value
2018-07-06T00:01:01.424Z,2.33
2018-07-06T00:03:42.607Z,2.47
2018-07-06T00:06:24.887Z,2.50
2018-07-06T00:09:06.457Z,2.10
2018-07-06T00:11:49.054Z,2.50
2018-07-06T00:14:31.760Z,2.10
2018-07-06T00:17:12.046Z,2.37
2018-07-06T00:19:53.039Z,2.77
2018-07-06T00:22:35.305Z,2.90
2018-07-06T00:25:17.561Z,2.83
2018-07-06T00:27:57.611Z,3.00
2018-07-06T00:30:38.103Z,2.70
2018-07-06T00:33:18.227Z,2.70
2018-07-06T00:35:58.337Z,2.83
2018-07-06T00:38:39.299Z,2.60
2018-07-06T00:41:20.347Z,2.23
2018-07-06T00:44:00.768Z,2.70
2018-07-06T00:46:40.949Z,2.87
2018-07-06T00:49:21.841Z,2.50
2018-07-06T00:52:09.346Z,3.57
2018-07-06T00:54:50.445Z,2.73
2018-07-06T00:57:32.889Z,3.00
2018-07-06T01:00:13.519Z,3.10
2018-07-06T01:02:53.693Z,3.00
2018-07-06T01:05:33.772Z,3.40
2018-07-06T01:08:15.337Z,2.73
2018-07-06T01:10:56.248Z,3.73
2018-07-06T01:13:36.901Z,3.53
2018-07-06T01:16:17.976Z,3.47
2018-07-06T01:18:58.923Z,3.30
2018-07-06T01:21:39.299Z,3.50
2018-07-06T01:24:19.410Z,3.87
2018-07-06T01:27:01.819Z,3.57
2018-07-06T01:29:44.235Z,3.47
2018-07-06T01:32:25.507Z,3.70
2018-07-06T01:35:06.410Z,3.77
2018-07-06T01:37:47.728Z,3.60
2018-07-06T01:40:27.807Z,3.53
2018-07-06T01:43:08.374Z,3.80
2018-07-06T01:45:48.953Z,3.50
2018-07-06T01:48:28.647Z,3.73
2018-07-06T01:51:08.857Z,3.80
2018-07-06T01:53:49.348Z,3.70
2018-07-06T01:56:29.338Z,3.03
2018-07-06T01:59:09.590Z,3.50
2018-07-06T02:01:49.847Z,3.47
2018-07-06T02:04:30.543Z,4.37
2018-07-06T02:07:10.977Z,4.03
2018-07-06T02:09:51.135Z,3.90
2018-07-06T02:12:33.449Z,3.50
2018-07-06T02:15:13.505Z,4.10
2018-07-06T02:17:53.667Z,4.87
2018-07-06T02:20:34.077Z,4.20
2018-07-06T02:23:15.799Z,5.20
2018-07-06T02:25:56.132Z,4.10
2018-07-06T02:28:37.920Z,3.90
2018-07-06T02:31:18.907Z,3.80
2018-07-06T02:34:00.581Z,4.00
2018-07-06T02:36:42.157Z,3.23
2018-07-06T02:39:22.261Z,3.83
2018-07-06T02:42:04.749Z,4.10
2018-07-06T02:44:45.012Z,5.00
2018-07-06T02:47:24.916Z,4.47
2018-07-06T02:50:08.192Z,3.90
2018-07-06T02:52:48.462Z,5.70
2018-07-06T02:55:31.353Z,4.60
2018-07-06T02:58:12.514Z,4.63
2018-07-06T03:00:53.460Z,4.37
2018-07-06T03:03:33.405Z,4.63
2018-07-06T03:06:13.758Z,4.80
2018-07-06T03:08:54.361Z,4.10
2018-07-06T03:11:34.563Z,4.83
2018-07-06T03:14:14.711Z,4.90
2018-07-06T03:16:55.201Z,4.60
2018-07-06T03:19:35.273Z,4.90
2018-07-06T03:22:15.780Z,4.73
2018-07-06T03:24:55.549Z,5.10
2018-07-06T03:27:36.627Z,4.83
2018-07-06T03:30:17.322Z,5.10
2018-07-06T03:32:57.277Z,5.57
2018-07-06T03:35:37.416Z,5.70
2018-07-06T03:38:17.414Z,5.10
2018-07-06T03:40:58.162Z,5.80
2018-07-06T03:43:38.515Z,5.47
2018-07-06T03:46:18.741Z,5.00
2018-07-06T03:48:58.775Z,5.50
2018-07-06T03:51:39.295Z,5.20
2018-07-06T03:54:19.422Z,5.20
2018-07-06T03:56:59.314Z,5.10
2018-07-06T03:59:40.717Z,5.93
2018-07-06T04:02:22.052Z,4.87
2018-07-06T04:05:04.013Z,5.90
2018-07-06T04:07:43.998Z,5.53
2018-07-06T04:10:24.424Z,6.20
2018-07-06T04:13:03.857Z,5.93
2018-07-06T04:15:44.209Z,5.47
2018-07-06T04:18:25.700Z,6.27
2018-07-06T04:21:07.135Z,5.93
2018-07-06T04:23:47.671Z,6.03
2018-07-06T04:26:27.289Z,6.80
2018-07-06T04:29:07.431Z,6.43
2018-07-06T04:31:48.320Z,6.63
2018-07-06T04:34:28.417Z,7.13
2018-07-06T04:37:11.032Z,7.50
2018-07-06T04:39:53.622Z,6.07
2018-07-06T04:42:35.074Z,6.43
2018-07-06T04:45:16.772Z,6.70
2018-07-06T04:47:58.867Z,6.80
2018-07-06T04:50:41.071Z,6.50
2018-07-06T04:53:21.172Z,6.40
2018-07-06T04:56:01.141Z,7.30
2018-07-06T04:58:40.939Z,6.30
2018-07-06T05:01:22.986Z,7.90
2018-07-06T05:04:07.835Z,7.10
2018-07-06T05:06:59.846Z,7.47
2018-07-06T05:09:40.837Z,7.23
2018-07-06T05:12:31.130Z,7.20
2018-07-06T05:15:14.698Z,7.27
2018-07-06T05:18:04.978Z,8.00
2018-07-06T05:20:52.455Z,8.80
2018-07-06T05:26:44.237Z,7.90
2018-07-06T05:29:32.095Z,6.57
2018-07-06T05:32:14.208Z,7.23
2018-07-06T05:34:56.843Z,7.23
2018-07-06T05:37:38.531Z,7.57
2018-07-06T05:40:22.952Z,6.90
2018-07-06T05:43:11.800Z,7.67
2018-07-06T05:45:53.628Z,8.27
2018-07-06T05:48:33.320Z,8.60
2018-07-06T05:54:09.978Z,8.40
2018-07-06T05:56:53.038Z,9.07
2018-07-06T05:59:37.021Z,9.23
2018-07-06T06:02:21.249Z,8.57
2018-07-06T06:05:05.159Z,8.90
2018-07-06T06:07:38.059Z,9.20
2018-07-06T06:10:09.285Z,11.63
2018-07-06T06:12:39.795Z,11.70
2018-07-06T06:15:08.095Z,13.20
2018-07-06T06:17:37.877Z,13.53
2018-07-06T06:20:12.919Z,17.57
2018-07-06T06:22:42.971Z,20.97
2018-07-06T06:25:14.181Z,21.20
2018-07-06T06:27:48.186Z,21.07
2018-07-06T06:30:17.044Z,18.27
2018-07-06T06:32:45.611Z,16.67
2018-07-06T06:35:15.255Z,17.60
2018-07-06T06:37:44.496Z,16.83
2018-07-06T06:40:16.163Z,16.53
2018-07-06T06:42:45.023Z,16.17
2018-07-06T06:45:17.154Z,17.10
2018-07-06T06:47:46.429Z,14.30
2018-07-06T06:50:16.232Z,13.97
2018-07-06T06:52:49.853Z,12.40
2018-07-06T06:55:18.586Z,14.67
2018-07-06T06:57:52.557Z,16.20
2018-07-06T07:00:27.532Z,13.67
2018-07-06T07:02:50.932Z,12.60
2018-07-06T07:05:21.197Z,13.17
2018-07-06T07:07:54.352Z,13.30
2018-07-06T07:10:22.814Z,13.73
2018-07-06T07:12:53.159Z,16.97
2018-07-06T07:15:23.589Z,13.20
2018-07-06T07:17:54.195Z,15.60
2018-07-06T07:20:22.696Z,14.50
2018-07-06T07:22:51.630Z,14.17
2018-07-06T07:25:23.610Z,15.60
2018-07-06T07:27:53.796Z,14.27
2018-07-06T07:30:23.370Z,14.57
2018-07-06T07:32:52.745Z,15.50
2018-07-06T07:35:22.315Z,16.10
2018-07-06T07:37:52.944Z,16.43
2018-07-06T07:40:23.076Z,19.57
2018-07-06T07:42:51.589Z,17.00
2018-07-06T07:45:20.300Z,15.93
2018-07-06T07:47:50.723Z,15.97
2018-07-06T07:50:19.641Z,15.10
2018-07-06T07:53:02.215Z,13.33
2018-07-06T07:55:32.281Z,14.87
2018-07-06T07:58:03.367Z,17.97
2018-07-06T08:00:32.834Z,21.40
2018-07-06T08:03:01.341Z,23.40
2018-07-06T08:05:29.701Z,26.00
2018-07-06T08:07:59.744Z,28.10
2018-07-06T08:10:29.955Z,29.93
2018-07-06T08:12:58.288Z,33.30
2018-07-06T08:15:26.899Z,33.47
2018-07-06T08:17:55.314Z,32.27
2018-07-06T08:20:23.616Z,34.87
2018-07-06T08:22:54.692Z,31.00
2018-07-06T08:25:28.435Z,34.50
2018-07-06T08:27:57.723Z,34.90
2018-07-06T08:30:26.203Z,32.83
2018-07-06T08:32:54.548Z,34.57
2018-07-06T08:35:34.134Z,35.20
2018-07-06T08:38:11.904Z,32.30
2018-07-06T08:40:40.261Z,33.23
2018-07-06T08:43:08.640Z,34.63
2018-07-06T08:45:37.061Z,33.47
2018-07-06T08:48:05.392Z,35.77
2018-07-06T08:50:33.689Z,34.93
2018-07-06T08:53:01.741Z,35.50
2018-07-06T08:55:31.044Z,36.00
2018-07-06T08:57:59.628Z,37.23
2018-07-06T09:00:27.956Z,36.60
2018-07-06T09:02:56.636Z,37.00
2018-07-06T09:05:27.289Z,37.83
2018-07-06T09:07:56.357Z,37.37
2018-07-06T09:10:26.266Z,38.00
2018-07-06T09:12:56.330Z,37.43
2018-07-06T09:15:25.040Z,33.63
2018-07-06T09:17:53.559Z,36.13
2018-07-06T09:20:21.843Z,37.20
2018-07-06T09:22:50.296Z,36.20
2018-07-06T09:25:18.823Z,35.57
2018-07-06T09:27:49.032Z,34.93
2018-07-06T09:30:17.945Z,35.90
2018-07-06T09:32:46.250Z,36.30
2018-07-06T09:35:14.892Z,37.07
2018-07-06T09:37:43.490Z,36.03
2018-07-06T09:40:11.794Z,35.63
2018-07-06T09:42:40.336Z,36.70
2018-07-06T09:45:08.744Z,36.40
2018-07-06T09:47:37.078Z,36.67
2018-07-06T09:50:08.195Z,35.80
2018-07-06T09:52:36.833Z,37.93
2018-07-06T09:55:05.234Z,38.47
2018-07-06T09:57:33.557Z,39.83
2018-07-06T10:00:02.477Z,37.40
2018-07-06T10:02:32.917Z,35.77
2018-07-06T10:05:03.955Z,36.13
2018-07-06T10:12:36.418Z,38.27
2018-07-06T10:15:20.186Z,38.13
2018-07-06T10:29:45.257Z,34.90
2018-07-06T13:29:29.882Z,11.00
2018-07-06T13:32:13.412Z,9.13
2018-07-06T13:34:50.647Z,8.60
2018-07-06T13:37:27.134Z,7.43
2018-07-06T13:40:03.154Z,8.63
2018-07-06T13:42:35.867Z,7.70
2018-07-06T13:45:11.270Z,8.87
2018-07-06T13:47:39.569Z,8.30
2018-07-06T13:50:08.324Z,7.00
2018-07-06T13:52:37.109Z,8.03
2018-07-06T13:55:06.589Z,7.47
2018-07-06T13:57:38.687Z,6.50
2018-07-06T14:00:14.048Z,5.80
2018-07-06T14:05:54.152Z,8.17
2018-07-06T14:08:27.393Z,7.47
2018-07-06T14:13:44.722Z,6.63
2018-07-06T14:16:24.721Z,6.77
2018-07-06T14:18:53.263Z,6.60
2018-07-06T14:21:36.359Z,6.10
2018-07-06T14:24:08.163Z,6.10
2018-07-06T14:26:45.571Z,5.50
2018-07-06T14:29:25.458Z,7.13
2018-07-06T14:32:12.928Z,7.80
2018-07-06T14:34:54.381Z,7.03
2018-07-06T14:37:23.964Z,6.63
2018-07-06T14:39:53.394Z,6.00
2018-07-06T14:42:23.532Z,6.43
2018-07-06T14:44:53.389Z,5.40
2018-07-06T14:47:22.159Z,7.00
2018-07-06T14:49:51.849Z,7.70
2018-07-06T14:52:20.231Z,6.30
2018-07-06T14:54:48.700Z,6.50
2018-07-06T14:57:17.080Z,5.77
2018-07-06T14:59:45.514Z,5.73
2018-07-06T15:02:14.092Z,6.47
2018-07-06T15:04:42.524Z,7.80
2018-07-06T15:07:10.869Z,7.17
2018-07-06T15:09:39.282Z,6.47
2018-07-06T15:12:07.640Z,5.93
2018-07-06T15:14:36.003Z,5.13
2018-07-06T15:17:04.935Z,5.90
2018-07-06T15:19:33.402Z,6.17
2018-07-06T15:22:02.262Z,6.30
2018-07-06T15:24:31.005Z,5.57
2018-07-06T15:26:59.293Z,5.97
2018-07-06T15:29:27.648Z,5.13
2018-07-06T15:31:55.958Z,5.50
2018-07-06T15:34:25.213Z,5.47
2018-07-06T15:36:54.126Z,5.80
2018-07-06T15:39:24.373Z,5.53
2018-07-06T15:41:55.455Z,5.33
2018-07-06T15:44:28.037Z,6.30
2018-07-06T15:47:00.051Z,5.30
2018-07-06T15:49:34.209Z,5.90
2018-07-06T15:52:04.301Z,6.27
2018-07-06T15:54:34.503Z,5.53
2018-07-06T15:57:03.749Z,5.20
2018-07-06T15:59:35.081Z,6.10
2018-07-06T16:02:06.054Z,5.20
2018-07-06T16:04:34.871Z,5.30
2018-07-06T16:07:03.494Z,5.90
2018-07-06T16:09:32.838Z,5.27
2018-07-06T16:12:02.657Z,4.47
2018-07-06T16:14:32.890Z,5.50
2018-07-06T16:17:01.961Z,4.73
2018-07-06T16:19:32.982Z,5.33
2018-07-06T16:22:05.429Z,4.63
2018-07-06T16:24:34.611Z,5.70
2018-07-06T16:27:04.052Z,6.73
2018-07-06T16:29:36.282Z,5.83
2018-07-06T16:32:11.865Z,6.30
2018-07-06T16:34:42.770Z,5.50
2018-07-06T16:37:13.145Z,6.07
2018-07-06T16:39:42.741Z,6.17
2018-07-06T16:42:13.906Z,5.50
2018-07-06T16:44:42.757Z,5.20
2018-07-06T16:47:12.234Z,5.30
2018-07-06T16:49:42.374Z,4.60
2018-07-06T16:52:12.526Z,4.37
2018-07-06T16:54:45.815Z,5.53
2018-07-06T16:57:14.419Z,4.47
2018-07-06T16:59:43.581Z,6.07
2018-07-06T17:02:13.622Z,4.87
2018-07-06T17:04:43.804Z,5.17
2018-07-06T17:07:13.750Z,5.30
2018-07-06T17:09:43.293Z,5.07
2018-07-06T17:12:18.831Z,4.37
2018-07-06T17:14:52.347Z,4.47
2018-07-06T17:17:23.110Z,3.90
2018-07-06T17:19:53.011Z,4.33
2018-07-06T17:22:22.210Z,4.63
2018-07-06T17:24:50.992Z,4.30
2018-07-06T17:27:33.846Z,3.83
2018-07-06T17:30:05.366Z,4.07
2018-07-06T17:32:41.946Z,4.17
2018-07-06T17:35:42.360Z,4.33
2018-07-06T17:38:11.928Z,4.80
2018-07-06T17:40:42.538Z,4.10
2018-07-06T17:43:21.409Z,4.30
2018-07-06T17:45:59.179Z,3.53
2018-07-06T17:48:32.265Z,4.20
2018-07-06T17:51:04.588Z,4.00
2018-07-06T17:59:39.136Z,3.90
2018-07-06T18:02:07.497Z,3.93
2018-07-06T18:04:35.835Z,4.30
2018-07-06T18:07:04.197Z,3.83
2018-07-06T18:09:32.535Z,4.33
2018-07-06T18:12:00.887Z,4.20
2018-07-06T18:14:29.233Z,3.50
2018-07-06T18:16:57.726Z,3.40
2018-07-06T18:19:26.109Z,3.70
2018-07-06T18:21:54.745Z,3.80
2018-07-06T18:24:23.233Z,3.87
2018-07-06T18:26:51.560Z,4.83
2018-07-06T18:29:19.893Z,3.60
2018-07-06T18:31:48.264Z,3.23
2018-07-06T18:34:16.689Z,3.40
2018-07-06T18:36:45.122Z,3.57
2018-07-06T18:39:13.424Z,3.07
2018-07-06T18:41:41.770Z,3.50
2018-07-06T18:44:10.094Z,3.60
2018-07-06T18:46:38.427Z,3.50
2018-07-06T18:49:06.760Z,4.10
2018-07-06T18:51:35.185Z,4.00
2018-07-06T18:54:03.575Z,3.93
2018-07-06T18:56:31.920Z,4.60
2018-07-06T18:59:00.282Z,4.40
2018-07-06T19:01:28.585Z,3.90
2018-07-06T19:03:56.953Z,4.00
2018-07-06T19:06:25.253Z,4.80
2018-07-06T19:08:53.641Z,4.57
2018-07-06T19:11:21.969Z,3.93
2018-07-06T19:13:50.330Z,4.40
2018-07-06T19:16:18.670Z,3.83
2018-07-06T19:18:46.966Z,4.50
2018-07-06T19:21:15.326Z,3.33
2018-07-06T19:23:43.604Z,4.60
2018-07-06T19:26:12.008Z,4.00
2018-07-06T19:28:40.430Z,4.23
2018-07-06T19:31:08.772Z,4.00
2018-07-06T19:33:37.111Z,4.70
2018-07-06T19:36:05.677Z,4.47
2018-07-06T19:38:34.194Z,4.50
2018-07-06T19:41:02.842Z,4.87
2018-07-06T19:43:31.201Z,5.23
2018-07-06T19:45:59.553Z,4.30
2018-07-06T19:48:27.990Z,5.40
2018-07-06T19:50:58.428Z,6.00
2018-07-06T19:53:26.801Z,5.57
2018-07-06T19:55:55.164Z,4.50
2018-07-06T19:58:23.653Z,5.03
2018-07-06T20:00:52.069Z,6.37
2018-07-06T20:03:20.486Z,8.10
2018-07-06T20:05:48.934Z,5.13
2018-07-06T20:08:17.329Z,4.80
2018-07-06T20:10:45.704Z,4.33
2018-07-06T20:13:14.078Z,4.43
2018-07-06T20:15:42.456Z,4.83
2018-07-06T20:18:10.969Z,4.57
2018-07-06T20:20:39.400Z,5.13
2018-07-06T20:23:07.947Z,5.28
2018-07-06T20:25:36.366Z,5.50
2018-07-06T20:28:04.797Z,4.10
2018-07-06T20:30:33.297Z,5.60
2018-07-06T20:33:01.625Z,4.80
2018-07-06T20:35:29.992Z,5.17
2018-07-06T20:37:58.361Z,4.03
2018-07-06T20:40:26.669Z,4.60
2018-07-06T20:42:54.984Z,5.47
2018-07-06T20:45:23.355Z,5.03
2018-07-06T20:47:51.705Z,4.37
2018-07-06T20:50:20.192Z,6.10
2018-07-06T20:52:48.514Z,5.50
2018-07-06T20:55:16.900Z,7.10
2018-07-06T20:57:45.224Z,4.60
2018-07-06T21:00:13.300Z,4.97
2018-07-06T21:02:41.576Z,8.77
2018-07-06T21:05:09.704Z,5.30
2018-07-06T21:07:38.149Z,4.87
2018-07-06T21:10:06.513Z,4.90
2018-07-06T21:12:34.841Z,5.23
2018-07-06T21:15:03.153Z,4.73
2018-07-06T21:17:31.476Z,5.60
2018-07-06T21:19:59.848Z,5.20
2018-07-06T21:22:28.700Z,5.73
2018-07-06T21:24:57.025Z,6.80
2018-07-06T21:27:25.361Z,6.40
2018-07-06T21:29:53.777Z,6.20
2018-07-06T21:32:22.121Z,4.87
2018-07-06T21:34:50.421Z,4.43
2018-07-06T21:37:18.726Z,4.93
2018-07-06T21:39:47.173Z,5.10
2018-07-06T21:42:15.570Z,5.20
2018-07-06T21:44:43.891Z,6.67
2018-07-06T21:47:12.353Z,5.90
2018-07-06T21:49:40.664Z,6.00
2018-07-06T21:52:09.028Z,6.07
2018-07-06T21:54:37.315Z,5.77
2018-07-06T21:57:05.637Z,6.07
2018-07-06T21:59:34.008Z,6.03
2018-07-06T22:02:02.344Z,5.43
2018-07-06T22:04:30.653Z,5.60
2018-07-06T22:06:59.162Z,5.23
2018-07-06T22:09:27.473Z,5.30
2018-07-06T22:11:56.193Z,5.40
2018-07-06T22:14:24.579Z,5.80
2018-07-06T22:16:52.904Z,5.30
2018-07-06T22:19:21.296Z,5.97
2018-07-06T22:21:49.601Z,6.47
2018-07-06T22:24:17.953Z,6.27
2018-07-06T22:26:46.276Z,5.50
2018-07-06T22:29:14.695Z,7.07
2018-07-06T22:31:43.082Z,5.87
2018-07-06T22:34:11.445Z,5.90
2018-07-06T22:36:39.832Z,6.93
2018-07-06T22:39:08.793Z,6.23
2018-07-06T22:41:37.143Z,7.40
2018-07-06T22:44:05.447Z,6.27
2018-07-06T22:46:33.464Z,5.77
2018-07-06T22:49:01.765Z,6.70
2018-07-06T22:51:30.130Z,6.17
2018-07-06T22:53:58.489Z,7.63
2018-07-06T22:56:26.788Z,5.83
2018-07-06T22:58:55.215Z,6.23
2018-07-06T23:01:23.593Z,6.20
2018-07-06T23:03:51.887Z,5.70
2018-07-06T23:06:20.361Z,6.20
2018-07-06T23:08:48.679Z,7.30
2018-07-06T23:11:16.964Z,7.53
2018-07-06T23:13:45.230Z,6.20
2018-07-06T23:16:13.593Z,6.20
2018-07-06T23:18:43.426Z,6.90
2018-07-06T23:21:11.708Z,6.07
2018-07-06T23:23:40.026Z,6.83
2018-07-06T23:26:08.430Z,5.50
2018-07-06T23:28:36.778Z,7.07
2018-07-06T23:31:05.117Z,5.87
2018-07-06T23:33:34.361Z,6.40
2018-07-06T23:36:02.760Z,5.90
2018-07-06T23:38:32.752Z,7.20
2018-07-06T23:41:00.760Z,5.90
2018-07-06T23:43:29.145Z,6.93
2018-07-06T23:45:57.456Z,6.80
2018-07-06T23:48:25.759Z,6.43
2018-07-06T23:50:54.114Z,7.13
2018-07-06T23:53:22.477Z,6.77
2018-07-06T23:55:50.765Z,7.57
2018-07-06T23:58:19.104Z,8.23
